createdAt,value
2023-01-31T00:00:53.894Z,943.59
2023-01-31T00:01:54.907Z,943.58
2023-01-31T00:02:55.897Z,943.63
2023-01-31T00:03:56.766Z,943.57
2023-01-31T00:04:57.294Z,943.68
2023-01-31T00:05:58.060Z,943.62
2023-01-31T00:06:59.018Z,943.52
2023-01-31T00:07:59.496Z,943.56
2023-01-31T00:08:59.886Z,943.57
2023-01-31T00:10:00.189Z,943.5
2023-01-31T00:11:00.833Z,943.51
2023-01-31T00:12:01.074Z,943.55
2023-01-31T00:13:02.060Z,943.54
2023-01-31T00:14:02.280Z,943.52
2023-01-31T00:15:02.568Z,943.58
2023-01-31T00:16:03.422Z,943.57
2023-01-31T00:17:04.189Z,943.62
2023-01-31T00:18:05.123Z,943.61
2023-01-31T00:19:05.747Z,943.56
2023-01-31T00:20:06.694Z,943.58
2023-01-31T00:21:06.923Z,943.54
2023-01-31T00:22:07.792Z,943.57
2023-01-31T00:23:08.017Z,943.55
2023-01-31T00:24:08.661Z,943.58
2023-01-31T00:25:09.681Z,943.5
2023-01-31T00:26:10.628Z,943.54
2023-01-31T00:27:10.728Z,943.46
2023-01-31T00:28:11.672Z,943.48
2023-01-31T00:29:11.924Z,943.58
2023-01-31T00:30:12.218Z,943.65
2023-01-31T00:31:13.253Z,943.62
2023-01-31T00:32:13.785Z,943.69
2023-01-31T00:33:14.158Z,943.64
2023-01-31T00:34:15.064Z,943.58
2023-01-31T00:35:15.685Z,943.62
2023-01-31T00:36:16.165Z,943.56
2023-01-31T00:37:16.832Z,943.43
2023-01-31T00:38:17.484Z,943.54
2023-01-31T00:39:18.127Z,943.48
2023-01-31T00:40:19.038Z,943.5
2023-01-31T00:41:20.041Z,943.54
2023-01-31T00:42:20.456Z,943.56
2023-01-31T00:43:20.997Z,943.57
2023-01-31T00:44:21.482Z,943.63
2023-01-31T00:45:22.337Z,943.59
2023-01-31T00:46:22.763Z,943.58
2023-01-31T00:47:23.426Z,943.6
2023-01-31T00:48:23.913Z,943.62
2023-01-31T00:49:24.217Z,943.56
2023-01-31T00:50:24.752Z,943.54
2023-01-31T00:51:26.703Z,943.58
2023-01-31T00:52:26.046Z,943.59
2023-01-31T00:53:27.089Z,943.57
2023-01-31T00:54:27.581Z,943.59
2023-01-31T00:55:28.576Z,943.59
2023-01-31T00:56:28.982Z,943.61
2023-01-31T00:57:30.023Z,943.58
2023-01-31T00:58:30.354Z,943.65
2023-01-31T00:59:30.959Z,943.66
2023-01-31T01:00:31.257Z,943.65
2023-01-31T01:01:31.732Z,943.7
2023-01-31T01:02:33.372Z,943.65
2023-01-31T01:03:33.124Z,943.61
2023-01-31T01:04:34.139Z,943.63
2023-01-31T01:05:34.448Z,943.6
2023-01-31T01:06:35.395Z,943.54
2023-01-31T01:07:35.932Z,943.6
2023-01-31T01:08:37.117Z,943.59
2023-01-31T01:09:37.133Z,943.56
2023-01-31T01:10:38.077Z,943.5
2023-01-31T01:11:39.011Z,943.51
2023-01-31T01:12:39.536Z,943.56
2023-01-31T01:13:40.091Z,943.56
2023-01-31T01:14:40.606Z,943.6
2023-01-31T01:15:41.199Z,943.65
2023-01-31T01:16:41.358Z,943.6
2023-01-31T01:17:42.361Z,943.63
2023-01-31T01:18:43.273Z,943.66
2023-01-31T01:19:44.187Z,943.57
2023-01-31T01:20:44.823Z,943.58
2023-01-31T01:21:45.051Z,943.59
2023-01-31T01:22:45.705Z,943.48
2023-01-31T01:23:45.943Z,943.55
2023-01-31T01:24:46.869Z,943.52
2023-01-31T01:25:47.482Z,943.49
2023-01-31T01:26:48.438Z,943.49
2023-01-31T01:27:48.764Z,943.54
2023-01-31T01:28:49.446Z,943.53
2023-01-31T01:29:49.702Z,943.59
2023-01-31T01:30:50.270Z,943.61
2023-01-31T01:31:51.104Z,943.61
2023-01-31T01:32:51.344Z,943.64
2023-01-31T01:33:52.263Z,943.65
2023-01-31T01:34:52.476Z,943.62
2023-01-31T01:35:53.389Z,943.63
2023-01-31T01:36:54.403Z,943.64
2023-01-31T01:37:54.634Z,943.67
2023-01-31T01:38:54.855Z,943.63
2023-01-31T01:39:55.498Z,943.57
2023-01-31T01:40:56.428Z,943.55
2023-01-31T01:41:56.618Z,943.58
2023-01-31T01:42:57.107Z,943.59
2023-01-31T01:43:57.331Z,943.63
2023-01-31T01:44:57.572Z,943.55
2023-01-31T01:45:57.891Z,943.62
2023-01-31T01:46:58.702Z,943.66
2023-01-31T01:47:59.054Z,943.65
2023-01-31T01:48:59.984Z,943.64
2023-01-31T01:50:00.468Z,943.65
2023-01-31T01:51:01.184Z,943.65
2023-01-31T01:52:02.107Z,943.64
2023-01-31T01:53:03.100Z,943.66
2023-01-31T01:54:03.761Z,943.72
2023-01-31T01:55:04.032Z,943.69
2023-01-31T01:56:04.569Z,943.71
2023-01-31T01:57:04.835Z,943.76
2023-01-31T01:58:05.751Z,943.74
2023-01-31T01:59:06.398Z,943.71
2023-01-31T02:00:06.923Z,943.74
2023-01-31T02:01:07.536Z,943.74
2023-01-31T02:02:08.474Z,943.7
2023-01-31T02:03:08.767Z,943.71
2023-01-31T02:04:09.720Z,943.72
2023-01-31T02:05:10.374Z,943.74
2023-01-31T02:06:10.802Z,943.74
2023-01-31T02:07:11.835Z,943.74
2023-01-31T02:08:12.602Z,943.8
2023-01-31T02:09:13.231Z,943.73
2023-01-31T02:10:13.639Z,943.73
2023-01-31T02:11:14.490Z,943.78
2023-01-31T02:12:15.551Z,943.74
2023-01-31T02:13:16.012Z,943.81
2023-01-31T02:14:16.233Z,943.78
2023-01-31T02:15:16.713Z,943.72
2023-01-31T02:16:17.651Z,943.74
2023-01-31T02:17:17.741Z,943.75
2023-01-31T02:18:17.886Z,943.78
2023-01-31T02:19:18.656Z,943.76
2023-01-31T02:20:19.231Z,943.74
2023-01-31T02:21:19.426Z,943.84
2023-01-31T02:22:19.772Z,943.8
2023-01-31T02:23:20.501Z,943.85
2023-01-31T02:24:21.476Z,943.82
2023-01-31T02:25:22.777Z,943.86
2023-01-31T02:26:23.507Z,943.84
2023-01-31T02:27:24.303Z,943.82
2023-01-31T02:28:24.648Z,943.79
2023-01-31T02:29:25.679Z,943.72
2023-01-31T02:30:26.433Z,943.76
2023-01-31T02:31:26.411Z,943.77
2023-01-31T02:32:27.415Z,943.73
2023-01-31T02:33:27.375Z,943.75
2023-01-31T02:34:28.308Z,943.72
2023-01-31T02:35:29.092Z,943.8
2023-01-31T02:36:29.052Z,943.79
2023-01-31T02:37:29.317Z,943.82
2023-01-31T02:38:30.230Z,943.84
2023-01-31T02:39:31.269Z,943.85
2023-01-31T02:40:31.729Z,943.89
2023-01-31T02:41:32.665Z,943.87
2023-01-31T02:42:33.020Z,943.83
2023-01-31T02:43:33.510Z,943.85
2023-01-31T02:44:33.745Z,943.84
2023-01-31T02:45:33.959Z,943.84
2023-01-31T02:46:34.948Z,943.84
2023-01-31T02:47:35.900Z,943.86
2023-01-31T02:48:36.571Z,943.84
2023-01-31T02:49:36.881Z,943.88
2023-01-31T02:50:37.572Z,943.9
2023-01-31T02:51:37.896Z,943.85
2023-01-31T02:52:38.104Z,943.88
2023-01-31T02:53:38.594Z,943.85
2023-01-31T02:54:39.672Z,943.84
2023-01-31T02:55:40.039Z,943.8
2023-01-31T02:56:40.258Z,943.79
2023-01-31T02:57:40.541Z,943.83
2023-01-31T02:58:41.045Z,943.85
2023-01-31T02:59:41.719Z,943.85
2023-01-31T03:00:41.979Z,943.83
2023-01-31T03:01:42.725Z,943.77
2023-01-31T03:02:43.195Z,943.79
2023-01-31T03:03:43.341Z,943.81
2023-01-31T03:04:43.548Z,943.75
2023-01-31T03:05:43.908Z,943.74
2023-01-31T03:06:44.554Z,943.75
2023-01-31T03:07:45.348Z,943.76
2023-01-31T03:08:45.876Z,943.84
2023-01-31T03:09:46.409Z,943.86
2023-01-31T03:10:46.656Z,943.89
2023-01-31T03:11:47.600Z,943.97
2023-01-31T03:12:47.801Z,943.99
2023-01-31T03:13:48.772Z,944.04
2023-01-31T03:14:49.766Z,943.98
2023-01-31T03:15:50.004Z,944
2023-01-31T03:16:50.423Z,944
2023-01-31T03:17:51.290Z,943.99
2023-01-31T03:18:51.825Z,943.98
2023-01-31T03:19:52.745Z,943.97
2023-01-31T03:20:53.253Z,943.95
2023-01-31T03:21:53.735Z,943.95
2023-01-31T03:22:54.644Z,943.95
2023-01-31T03:23:55.610Z,943.97
2023-01-31T03:24:55.840Z,943.99
2023-01-31T03:25:56.923Z,943.96
2023-01-31T03:26:57.913Z,943.95
2023-01-31T03:27:58.102Z,944.03
2023-01-31T03:28:58.597Z,944.04
2023-01-31T03:29:59.323Z,944.1
2023-01-31T03:30:59.634Z,944.11
2023-01-31T03:32:00.317Z,944.13
2023-01-31T03:33:00.848Z,944.17
2023-01-31T03:34:01.431Z,944.15
2023-01-31T03:35:01.778Z,944.14
2023-01-31T03:36:02.676Z,944.15
2023-01-31T03:37:03.612Z,944.23
2023-01-31T03:38:04.440Z,944.18
2023-01-31T03:39:05.524Z,944.2
2023-01-31T03:40:06.213Z,944.18
2023-01-31T03:41:06.774Z,944.13
2023-01-31T03:42:06.998Z,944.19
2023-01-31T03:43:07.686Z,944.15
2023-01-31T03:44:08.458Z,944.2
2023-01-31T03:45:08.971Z,944.13
2023-01-31T03:46:09.862Z,944.17
2023-01-31T03:47:09.982Z,944.16
2023-01-31T03:48:10.790Z,944.13
2023-01-31T03:49:11.262Z,944.18
2023-01-31T03:50:12.150Z,944.13
2023-01-31T03:51:12.824Z,944.12
2023-01-31T03:52:13.754Z,944.13
2023-01-31T03:53:15.016Z,944.14
2023-01-31T03:54:14.987Z,944.13
2023-01-31T03:55:15.918Z,944.17
2023-01-31T03:56:16.855Z,944.17
2023-01-31T03:57:17.551Z,944.08
2023-01-31T03:58:18.555Z,944.11
2023-01-31T03:59:18.773Z,944.07
2023-01-31T04:00:18.998Z,944.07
2023-01-31T04:01:19.995Z,944.08
2023-01-31T04:02:20.767Z,944.08
2023-01-31T04:03:21.740Z,944.1
2023-01-31T04:04:21.956Z,944.08
2023-01-31T04:05:23.127Z,944.12
2023-01-31T04:06:23.641Z,944.19
2023-01-31T04:07:23.895Z,944.19
2023-01-31T04:08:24.645Z,944.19
2023-01-31T04:09:25.128Z,944.19
2023-01-31T04:10:26.041Z,944.23
2023-01-31T04:11:26.539Z,944.23
2023-01-31T04:12:27.336Z,944.19
2023-01-31T04:13:28.404Z,944.21
2023-01-31T04:14:28.740Z,944.19
2023-01-31T04:15:28.988Z,944.22
2023-01-31T04:16:29.322Z,944.24
2023-01-31T04:17:29.883Z,944.31
2023-01-31T04:18:30.603Z,944.3
2023-01-31T04:19:30.838Z,944.3
2023-01-31T04:20:31.065Z,944.33
2023-01-31T04:21:32.180Z,944.33
2023-01-31T04:22:33.240Z,944.29
2023-01-31T04:23:33.412Z,944.32
2023-01-31T04:24:33.940Z,944.36
2023-01-31T04:25:34.304Z,944.43
2023-01-31T04:26:34.835Z,944.44
2023-01-31T04:27:35.662Z,944.47
2023-01-31T04:28:36.757Z,944.43
2023-01-31T04:29:37.674Z,944.5
2023-01-31T04:30:38.336Z,944.5
2023-01-31T04:31:38.670Z,944.48
2023-01-31T04:32:39.311Z,944.48
2023-01-31T04:33:39.984Z,944.46
2023-01-31T04:34:40.911Z,944.54
2023-01-31T04:35:41.828Z,944.59
2023-01-31T04:36:42.366Z,944.58
2023-01-31T04:37:43.310Z,944.59
2023-01-31T04:38:43.574Z,944.56
2023-01-31T04:39:44.233Z,944.57
2023-01-31T04:40:45.159Z,944.51
2023-01-31T04:41:45.358Z,944.56
2023-01-31T04:42:45.600Z,944.6
2023-01-31T04:43:46.503Z,944.61
2023-01-31T04:44:47.031Z,944.55
2023-01-31T04:45:47.296Z,944.58
2023-01-31T04:46:48.324Z,944.62
2023-01-31T04:47:49.215Z,944.6
2023-01-31T04:48:49.822Z,944.6
2023-01-31T04:49:50.029Z,944.61
2023-01-31T04:50:50.686Z,944.65
2023-01-31T04:51:50.899Z,944.62
2023-01-31T04:52:51.834Z,944.62
2023-01-31T04:53:52.744Z,944.63
2023-01-31T04:54:52.957Z,944.66
2023-01-31T04:55:53.187Z,944.62
2023-01-31T04:56:53.715Z,944.65
2023-01-31T04:57:54.196Z,944.62
2023-01-31T04:58:54.441Z,944.67
2023-01-31T04:59:55.395Z,944.65
2023-01-31T05:00:56.450Z,944.66
2023-01-31T05:01:56.518Z,944.69
2023-01-31T05:02:57.561Z,944.71
2023-01-31T05:03:58.147Z,944.71
2023-01-31T05:04:58.395Z,944.69
2023-01-31T05:05:59.319Z,944.68
2023-01-31T05:07:00.275Z,944.71
2023-01-31T05:08:00.511Z,944.69
2023-01-31T05:09:01.272Z,944.75
2023-01-31T05:10:02.101Z,944.78
2023-01-31T05:11:04.105Z,944.79
2023-01-31T05:12:02.782Z,944.76
2023-01-31T05:13:03.740Z,944.78
2023-01-31T05:14:04.830Z,944.81
2023-01-31T05:15:05.046Z,944.77
2023-01-31T05:16:05.773Z,944.81
2023-01-31T05:17:05.837Z,944.81
2023-01-31T05:18:06.729Z,944.89
2023-01-31T05:19:07.469Z,944.85
2023-01-31T05:20:07.979Z,944.89
2023-01-31T05:21:08.918Z,944.89
2023-01-31T05:22:09.129Z,944.86
2023-01-31T05:23:10.112Z,944.9
2023-01-31T05:24:10.636Z,944.89
2023-01-31T05:25:11.563Z,944.89
2023-01-31T05:26:11.779Z,944.88
2023-01-31T05:27:11.952Z,944.91
2023-01-31T05:28:12.549Z,944.94
2023-01-31T05:29:13.503Z,944.93
2023-01-31T05:30:14.504Z,944.92
2023-01-31T05:31:15.486Z,944.94
2023-01-31T05:32:16.113Z,945.02
2023-01-31T05:33:16.389Z,945
2023-01-31T05:34:17.102Z,945.06
2023-01-31T05:35:18.158Z,945.08
2023-01-31T05:36:18.842Z,945.09
2023-01-31T05:37:19.468Z,945.09
2023-01-31T05:38:19.989Z,945.1
2023-01-31T05:39:20.815Z,945.13
2023-01-31T05:40:21.231Z,945.12
2023-01-31T05:41:21.869Z,945.17
2023-01-31T05:42:22.159Z,945.17
2023-01-31T05:43:23.082Z,945.21
2023-01-31T05:44:23.429Z,945.21
2023-01-31T05:45:23.989Z,945.19
2023-01-31T05:46:24.983Z,945.19
2023-01-31T05:47:25.135Z,945.16
2023-01-31T05:48:25.939Z,945.12
2023-01-31T05:49:26.255Z,945.13
2023-01-31T05:50:27.369Z,945.14
2023-01-31T05:51:28.292Z,945.13
2023-01-31T05:52:29.221Z,945.15
2023-01-31T05:53:29.703Z,945.13
2023-01-31T05:54:30.193Z,945.21
2023-01-31T05:55:31.235Z,945.17
2023-01-31T05:56:32.359Z,945.19
2023-01-31T05:57:32.350Z,945.24
2023-01-31T05:58:33.292Z,945.23
2023-01-31T05:59:33.861Z,945.26
2023-01-31T06:00:34.811Z,945.26
2023-01-31T06:01:35.761Z,945.24
2023-01-31T06:02:36.785Z,945.24
2023-01-31T06:03:37.191Z,945.23
2023-01-31T06:04:38.167Z,945.29
2023-01-31T06:05:39.088Z,945.22
2023-01-31T06:06:39.997Z,945.27
2023-01-31T06:07:40.944Z,945.26
2023-01-31T06:08:41.863Z,945.26
2023-01-31T06:09:42.664Z,945.21
2023-01-31T06:10:43.583Z,945.24
2023-01-31T06:11:44.642Z,945.22
2023-01-31T06:12:45.585Z,945.21
2023-01-31T06:13:45.956Z,945.24
2023-01-31T06:14:46.890Z,945.26
2023-01-31T06:15:47.269Z,945.25
2023-01-31T06:16:47.962Z,945.26
2023-01-31T06:17:48.309Z,945.23
2023-01-31T06:18:48.923Z,945.24
2023-01-31T06:19:49.243Z,945.27
2023-01-31T06:20:49.410Z,945.27
2023-01-31T06:21:49.953Z,945.29
2023-01-31T06:22:50.675Z,945.34
2023-01-31T06:23:51.338Z,945.34
2023-01-31T06:24:51.851Z,945.36
2023-01-31T06:25:52.806Z,945.33
2023-01-31T06:26:53.742Z,945.31
2023-01-31T06:27:54.378Z,945.31
2023-01-31T06:28:55.305Z,945.34
2023-01-31T06:29:55.658Z,945.32
2023-01-31T06:30:56.827Z,945.3
2023-01-31T06:31:56.754Z,945.29
2023-01-31T06:32:57.582Z,945.28
2023-01-31T06:33:57.918Z,945.25
2023-01-31T06:34:58.656Z,945.24
2023-01-31T06:35:59.642Z,945.19
2023-01-31T06:36:59.778Z,945.24
2023-01-31T06:38:00.726Z,945.21
2023-01-31T06:39:00.957Z,945.24
2023-01-31T06:40:01.943Z,945.19
2023-01-31T06:41:02.158Z,945.2
2023-01-31T06:42:03.081Z,945.22
2023-01-31T06:43:03.419Z,945.22
2023-01-31T06:44:03.681Z,945.19
2023-01-31T06:45:04.621Z,945.15
2023-01-31T06:46:05.196Z,945.11
2023-01-31T06:47:05.720Z,945.07
2023-01-31T06:48:05.956Z,945.05
2023-01-31T06:49:06.271Z,944.99
2023-01-31T06:50:06.960Z,944.95
2023-01-31T06:51:07.927Z,944.98
2023-01-31T06:52:08.890Z,944.93
2023-01-31T06:53:09.743Z,944.91
2023-01-31T06:54:09.985Z,944.88
2023-01-31T06:55:10.928Z,944.82
2023-01-31T06:56:11.158Z,944.8
2023-01-31T06:57:11.349Z,944.84
2023-01-31T06:58:11.982Z,944.84
2023-01-31T06:59:12.374Z,944.91
2023-01-31T07:00:12.941Z,944.92
2023-01-31T07:01:13.255Z,944.85
2023-01-31T07:02:13.418Z,944.91
2023-01-31T07:03:14.030Z,944.93
2023-01-31T07:04:14.122Z,944.96
2023-01-31T07:05:15.189Z,944.94
2023-01-31T07:06:15.892Z,944.9
2023-01-31T07:07:16.253Z,944.93
2023-01-31T07:08:17.081Z,944.96
2023-01-31T07:09:17.657Z,944.91
2023-01-31T07:10:18.007Z,944.97
2023-01-31T07:11:18.768Z,945.02
2023-01-31T07:12:19.176Z,944.99
2023-01-31T07:13:19.373Z,945.02
2023-01-31T07:14:20.359Z,945.05
2023-01-31T07:15:20.920Z,945.06
2023-01-31T07:16:21.481Z,945
2023-01-31T07:17:21.929Z,945.03
2023-01-31T07:18:22.436Z,945.02
2023-01-31T07:19:22.743Z,945.03
2023-01-31T07:20:23.678Z,945.04
2023-01-31T07:21:23.979Z,945.04
2023-01-31T07:22:24.500Z,945.02
2023-01-31T07:23:24.889Z,945.01
2023-01-31T07:24:25.126Z,945
2023-01-31T07:25:25.428Z,945.01
2023-01-31T07:26:25.916Z,945
2023-01-31T07:27:26.758Z,944.99
2023-01-31T07:28:27.850Z,945.01
2023-01-31T07:29:28.224Z,945.06
2023-01-31T07:30:28.440Z,945.07
2023-01-31T07:31:28.943Z,945.06
2023-01-31T07:32:30.024Z,945.11
2023-01-31T07:33:30.029Z,945.13
2023-01-31T07:34:31.174Z,945.16
2023-01-31T07:35:31.426Z,945.14
2023-01-31T07:36:32.368Z,945.14
2023-01-31T07:37:33.335Z,945.18
2023-01-31T07:38:33.544Z,945.19
2023-01-31T07:39:34.516Z,945.2
2023-01-31T07:40:34.845Z,945.23
2023-01-31T07:41:35.821Z,945.23
2023-01-31T07:42:36.055Z,945.21
2023-01-31T07:43:36.295Z,945.18
2023-01-31T07:44:37.204Z,945.14
2023-01-31T07:45:38.129Z,945.15
2023-01-31T07:46:38.174Z,945.17
2023-01-31T07:47:39.004Z,945.2
2023-01-31T07:48:39.962Z,945.18
2023-01-31T07:49:40.224Z,945.23
2023-01-31T07:50:40.644Z,945.23
2023-01-31T07:51:41.567Z,945.2
2023-01-31T07:52:41.792Z,945.21
2023-01-31T07:53:42.600Z,945.27
2023-01-31T07:54:43.600Z,945.27
2023-01-31T07:55:43.928Z,945.28
2023-01-31T07:56:44.540Z,945.27
2023-01-31T07:57:45.504Z,945.27
2023-01-31T07:58:45.714Z,945.31
2023-01-31T07:59:45.985Z,945.26
2023-01-31T08:00:46.271Z,945.26
2023-01-31T08:01:49.493Z,945.26
2023-01-31T08:02:48.253Z,945.3
2023-01-31T08:03:48.285Z,945.25
2023-01-31T08:04:48.437Z,945.28
2023-01-31T08:05:48.892Z,945.29
2023-01-31T08:06:49.257Z,945.33
2023-01-31T08:07:49.529Z,945.27
2023-01-31T08:08:50.492Z,945.31
2023-01-31T08:09:51.159Z,945.34
2023-01-31T08:10:51.281Z,945.31
2023-01-31T08:11:52.243Z,945.3
2023-01-31T08:12:52.469Z,945.23
2023-01-31T08:13:52.687Z,945.22
2023-01-31T08:14:52.916Z,945.26
2023-01-31T08:15:53.827Z,945.24
2023-01-31T08:16:54.779Z,945.25
2023-01-31T08:17:55.222Z,945.19
2023-01-31T08:18:56.202Z,945.2
2023-01-31T08:19:56.754Z,945.24
2023-01-31T08:20:57.778Z,945.29
2023-01-31T08:21:58.023Z,945.29
2023-01-31T08:22:58.249Z,945.34
2023-01-31T08:23:58.767Z,945.39
2023-01-31T08:24:59.328Z,945.44
2023-01-31T08:25:59.531Z,945.42
2023-01-31T08:26:59.777Z,945.51
2023-01-31T08:28:00.136Z,945.46
2023-01-31T08:29:01.076Z,945.41
2023-01-31T08:30:01.317Z,945.41
2023-01-31T08:31:10.169Z,945.44
2023-01-31T08:32:10.519Z,945.31
2023-01-31T08:33:10.993Z,945.3
2023-01-31T08:34:11.228Z,945.31
2023-01-31T08:35:11.507Z,945.27
2023-01-31T08:36:11.929Z,945.28
2023-01-31T08:37:12.989Z,945.29
2023-01-31T08:38:16.515Z,945.29
2023-01-31T08:39:13.590Z,945.28
2023-01-31T08:40:14.092Z,945.28
2023-01-31T08:41:15.178Z,945.3
2023-01-31T08:42:16.191Z,945.34
2023-01-31T08:43:16.387Z,945.32
2023-01-31T08:44:16.603Z,945.33
2023-01-31T08:45:17.388Z,945.34
2023-01-31T08:46:17.712Z,945.32
2023-01-31T08:47:18.343Z,945.29
2023-01-31T08:48:19.111Z,945.39
2023-01-31T08:49:19.714Z,945.36
2023-01-31T08:50:27.498Z,945.36
2023-01-31T08:51:21.075Z,945.34
2023-01-31T08:52:21.632Z,945.36
2023-01-31T08:53:22.162Z,945.4
2023-01-31T08:54:22.334Z,945.37
2023-01-31T08:55:23.341Z,945.38
2023-01-31T08:56:23.582Z,945.33
2023-01-31T08:57:24.580Z,945.37
2023-01-31T08:58:24.834Z,945.34
2023-01-31T08:59:25.837Z,945.37
2023-01-31T09:00:26.832Z,945.3
2023-01-31T09:01:27.395Z,945.28
2023-01-31T09:02:28.085Z,945.33
2023-01-31T09:03:29.041Z,945.29
2023-01-31T09:04:30.002Z,945.31
2023-01-31T09:05:30.337Z,945.29
2023-01-31T09:06:31.164Z,945.27
2023-01-31T09:07:32.350Z,945.26
2023-01-31T09:08:32.399Z,945.22
2023-01-31T09:09:32.995Z,945.22
2023-01-31T09:10:33.624Z,945.24
2023-01-31T09:11:33.647Z,945.27
2023-01-31T09:12:34.472Z,945.26
2023-01-31T09:13:34.728Z,945.28
2023-01-31T09:14:35.383Z,945.3
2023-01-31T09:15:36.013Z,945.24
2023-01-31T09:16:37.011Z,945.25
2023-01-31T09:17:37.817Z,945.27
2023-01-31T09:18:39.023Z,945.26
2023-01-31T09:19:39.287Z,945.3
2023-01-31T09:20:39.546Z,945.28
2023-01-31T09:21:40.303Z,945.27
2023-01-31T09:22:40.515Z,945.28
2023-01-31T09:23:42.634Z,945.28
2023-01-31T09:24:42.088Z,945.32
2023-01-31T09:25:47.538Z,945.28
2023-01-31T09:26:44.180Z,945.32
2023-01-31T09:27:44.571Z,945.34
2023-01-31T09:28:45.212Z,945.38
2023-01-31T09:29:45.390Z,945.34
2023-01-31T09:30:45.721Z,945.36
2023-01-31T09:31:46.788Z,945.35
2023-01-31T09:32:47.236Z,945.35
2023-01-31T09:33:47.542Z,945.32
2023-01-31T09:34:48.147Z,945.34
2023-01-31T09:35:48.191Z,945.36
2023-01-31T09:36:49.145Z,945.31
2023-01-31T09:37:49.404Z,945.32
2023-01-31T09:38:49.661Z,945.33
2023-01-31T09:39:49.912Z,945.35
2023-01-31T09:40:50.155Z,945.33
2023-01-31T09:41:51.194Z,945.35
2023-01-31T09:42:52.181Z,945.34
2023-01-31T09:43:52.390Z,945.33
2023-01-31T09:44:53.348Z,945.35
2023-01-31T09:45:53.847Z,945.36
2023-01-31T09:46:54.828Z,945.4
2023-01-31T09:47:55.048Z,945.36
2023-01-31T09:48:56.056Z,945.35
2023-01-31T09:49:56.300Z,945.32
2023-01-31T09:50:56.449Z,945.36
2023-01-31T09:51:56.838Z,945.36
2023-01-31T09:52:57.399Z,945.34
2023-01-31T09:53:57.623Z,945.32
2023-01-31T09:54:57.888Z,945.3
2023-01-31T09:55:58.870Z,945.32
2023-01-31T09:56:59.272Z,945.31
2023-01-31T09:57:59.967Z,945.27
2023-01-31T09:59:00.335Z,945.3
2023-01-31T10:00:01.050Z,945.27
2023-01-31T10:01:01.896Z,945.29
2023-01-31T10:02:02.891Z,945.3
2023-01-31T10:03:03.121Z,945.3
2023-01-31T10:04:03.421Z,945.32
2023-01-31T10:05:03.532Z,945.32
2023-01-31T10:06:04.567Z,945.33
2023-01-31T10:07:05.069Z,945.3
2023-01-31T10:08:06.040Z,945.3
2023-01-31T10:09:06.729Z,945.31
2023-01-31T10:10:07.749Z,945.29
2023-01-31T10:11:07.968Z,945.3
2023-01-31T10:12:08.383Z,945.3
2023-01-31T10:13:08.908Z,945.28
2023-01-31T10:14:09.405Z,945.33
2023-01-31T10:15:09.872Z,945.32
2023-01-31T10:16:10.481Z,945.31
2023-01-31T10:17:10.684Z,945.3
2023-01-31T10:18:10.724Z,945.3
2023-01-31T10:19:11.677Z,945.31
2023-01-31T10:20:11.755Z,945.34
2023-01-31T10:21:12.759Z,945.34
2023-01-31T10:22:13.140Z,945.33
2023-01-31T10:23:13.916Z,945.34
2023-01-31T10:24:14.181Z,945.3
2023-01-31T10:25:15.125Z,945.29
2023-01-31T10:26:15.724Z,945.31
2023-01-31T10:27:16.714Z,945.25
2023-01-31T10:28:17.263Z,945.28
2023-01-31T10:29:18.744Z,945.24
2023-01-31T10:30:19.389Z,945.25
2023-01-31T10:31:19.991Z,945.24
2023-01-31T10:32:20.396Z,945.23
2023-01-31T10:33:21.080Z,945.21
2023-01-31T10:34:21.379Z,945.25
2023-01-31T10:35:22.024Z,945.21
2023-01-31T10:36:22.540Z,945.16
2023-01-31T10:37:23.060Z,945.17
2023-01-31T10:38:24.029Z,945.15
2023-01-31T10:39:24.657Z,945.09
2023-01-31T10:40:25.075Z,945.07
2023-01-31T10:41:24.997Z,945.05
2023-01-31T10:42:26.029Z,944.97
2023-01-31T10:43:26.578Z,944.92
2023-01-31T10:44:26.676Z,944.87
2023-01-31T10:45:27.628Z,944.85
2023-01-31T10:46:28.792Z,944.87
2023-01-31T10:47:29.092Z,944.87
2023-01-31T10:48:30.047Z,944.84
2023-01-31T10:49:30.576Z,944.75
2023-01-31T10:50:30.923Z,944.78
2023-01-31T10:51:31.915Z,944.79
2023-01-31T10:52:32.571Z,944.72
2023-01-31T10:53:33.170Z,944.7
2023-01-31T10:54:33.883Z,944.68
2023-01-31T10:55:34.137Z,944.64
2023-01-31T10:56:34.399Z,944.69
2023-01-31T10:57:35.502Z,944.67
2023-01-31T10:58:35.758Z,944.69
2023-01-31T10:59:36.317Z,944.66
2023-01-31T11:00:36.598Z,944.62
2023-01-31T11:01:37.052Z,944.63
2023-01-31T11:02:38.092Z,944.58
2023-01-31T11:03:38.374Z,944.58
2023-01-31T11:04:39.196Z,944.57
2023-01-31T11:05:39.449Z,944.58
2023-01-31T11:06:40.442Z,944.57
2023-01-31T11:07:41.390Z,944.51
2023-01-31T11:08:42.074Z,944.53
2023-01-31T11:09:42.291Z,944.6
2023-01-31T11:10:43.230Z,944.56
2023-01-31T11:11:43.866Z,944.5
2023-01-31T11:12:44.219Z,944.46
2023-01-31T11:13:44.853Z,944.45
2023-01-31T11:14:45.074Z,944.5
2023-01-31T11:15:45.288Z,944.49
2023-01-31T11:16:45.555Z,944.49
2023-01-31T11:17:45.857Z,944.48
2023-01-31T11:18:46.241Z,944.51
2023-01-31T11:19:47.149Z,944.51
2023-01-31T11:20:47.712Z,944.52
2023-01-31T11:21:48.273Z,944.48
2023-01-31T11:22:48.992Z,944.45
2023-01-31T11:23:49.247Z,944.49
2023-01-31T11:24:50.325Z,944.41
2023-01-31T11:25:51.312Z,944.42
2023-01-31T11:26:52.278Z,944.37
2023-01-31T11:27:52.779Z,944.42
2023-01-31T11:28:52.999Z,944.39
2023-01-31T11:29:53.756Z,944.37
2023-01-31T11:30:54.527Z,944.35
2023-01-31T11:31:55.169Z,944.34
2023-01-31T11:32:56.154Z,944.34
2023-01-31T11:33:57.219Z,944.3
2023-01-31T11:34:57.439Z,944.35
2023-01-31T11:35:58.007Z,944.3
2023-01-31T11:36:58.622Z,944.32
2023-01-31T11:37:58.845Z,944.28
2023-01-31T11:38:59.843Z,944.26
2023-01-31T11:40:00.779Z,944.25
2023-01-31T11:41:01.575Z,944.21
2023-01-31T11:42:02.511Z,944.31
2023-01-31T11:43:03.606Z,944.23
2023-01-31T11:44:04.281Z,944.18
2023-01-31T11:45:04.791Z,944.16
2023-01-31T11:46:05.487Z,944.15
2023-01-31T11:47:05.842Z,944.17
2023-01-31T11:48:06.504Z,944.1
2023-01-31T11:49:06.740Z,944.08
2023-01-31T11:50:07.283Z,944.05
2023-01-31T11:51:07.363Z,944.01
2023-01-31T11:52:07.637Z,943.97
2023-01-31T11:53:08.729Z,943.93
2023-01-31T11:54:09.023Z,943.98
2023-01-31T11:55:10.007Z,943.97
2023-01-31T11:56:10.988Z,943.96
2023-01-31T11:57:11.664Z,943.96
2023-01-31T11:58:11.897Z,943.96
2023-01-31T11:59:12.109Z,943.91
2023-01-31T12:00:12.654Z,943.88
2023-01-31T12:01:13.716Z,943.85
2023-01-31T12:02:14.020Z,943.8
2023-01-31T12:03:14.449Z,943.84
2023-01-31T12:04:15.004Z,943.84
2023-01-31T12:05:15.579Z,943.79
2023-01-31T12:06:15.861Z,943.81
2023-01-31T12:07:16.886Z,943.8
2023-01-31T12:08:17.823Z,943.77
2023-01-31T12:09:18.214Z,943.74
2023-01-31T12:10:18.679Z,943.72
2023-01-31T12:11:18.527Z,943.68
2023-01-31T12:12:19.503Z,943.71
2023-01-31T12:13:20.328Z,943.7
2023-01-31T12:14:20.875Z,943.72
2023-01-31T12:15:21.492Z,943.65
2023-01-31T12:16:21.828Z,943.62
2023-01-31T12:17:22.596Z,943.65
2023-01-31T12:18:23.225Z,943.63
2023-01-31T12:19:23.680Z,943.57
2023-01-31T12:20:28.922Z,943.51
2023-01-31T12:21:24.677Z,943.52
2023-01-31T12:22:25.741Z,943.46
2023-01-31T12:23:25.882Z,943.44
2023-01-31T12:24:26.853Z,943.4
2023-01-31T12:25:27.134Z,943.39
2023-01-31T12:26:27.411Z,943.37
2023-01-31T12:27:27.763Z,943.32
2023-01-31T12:28:28.719Z,943.3
2023-01-31T12:29:28.956Z,943.26
2023-01-31T12:30:29.945Z,943.22
2023-01-31T12:31:30.506Z,943.23
2023-01-31T12:32:30.605Z,943.22
2023-01-31T12:33:30.763Z,943.17
2023-01-31T12:34:31.028Z,943.15
2023-01-31T12:35:31.316Z,943.12
2023-01-31T12:36:32.322Z,943.09
2023-01-31T12:37:33.343Z,943.07
2023-01-31T12:38:33.593Z,943.02
2023-01-31T12:39:34.184Z,943.04